| Date | Time | Temp. (oF) | Dew Point (oF) | Rel. Hum. (%) | Press. (in.) | Wind Dir. | Wind Speed (mph) | Hourly Rainfall (in.) |
|
|---|---|---|---|---|---|---|---|---|---|
| 1 | 02/01 | 00:00 | 39 | 26 | 61 | 29.83 | NW | 5 | 0.00 |
| 2 | 01/31 | 23:00 | 40 | 25 | 57 | 29.83 | NW | 3 | 0.00 |
| 3 | 01/31 | 22:00 | 38 | 25 | 60 | 29.81 | NW | 4 | 0.00 |
| 4 | 01/31 | 21:00 | 37 | 26 | 66 | 29.80 | NW | 0 | 0.00 |
| 5 | 01/31 | 20:00 | 42 | 26 | 54 | 29.79 | NW | 4 | 0.00 |
| 6 | 01/31 | 19:00 | 42 | 28 | 58 | 29.78 | NW | 1 | 0.00 |
| 7 | 01/31 | 18:00 | 44 | 29 | 56 | 29.75 | W | 7 | 0.00 |
| 8 | 01/31 | 17:00 | 43 | 26 | 53 | 29.72 | NW | 4 | 0.00 |
| 9 | 01/31 | 16:00 | 43 | 26 | 51 | 29.69 | NW | 6 | 0.00 |
| 10 | 01/31 | 15:00 | 43 | 26 | 53 | 29.67 | NW | 0 | 0.00 |
| 11 | 01/31 | 14:00 | 40 | 25 | 57 | 29.67 | NW | 7 | 0.00 |
| 12 | 01/31 | 13:00 | 38 | 25 | 60 | 29.68 | NW | 6 | 0.00 |
| 13 | 01/31 | 12:00 | 38 | 23 | 55 | 29.71 | NW | 16 | 0.00 |
| 14 | 01/31 | 11:00 | 33 | 21 | 63 | 29.75 | NW | 7 | 0.00 |
| 15 | 01/31 | 10:00 | 30 | 18 | 61 | 29.79 | NW | 5 | 0.00 |
| 16 | 01/31 | 09:00 | 28 | 17 | 65 | 29.83 | NW | 3 | 0.00 |
| 17 | 01/31 | 08:00 | 27 | 17 | 67 | 29.85 | NW | 1 | 0.00 |
| 18 | 01/31 | 07:00 | 26 | 16 | 68 | 29.88 | NW | 1 | 0.00 |
| 19 | 01/31 | 06:00 | 26 | 16 | 67 | 29.90 | NW | 3 | 0.00 |
| 20 | 01/31 | 05:00 | 25 | 14 | 65 | 29.93 | NW | 1 | 0.00 |
| 21 | 01/31 | 04:00 | 23 | 13 | 66 | 29.96 | NW | 1 | 0.00 |
| 22 | 01/31 | 03:00 | 22 | 15 | 76 | 30.00 | NW | 1 | 0.00 |
| 23 | 01/31 | 02:00 | 22 | 14 | 74 | 30.01 | NW | 1 | 0.00 |
| 24 | 01/31 | 01:00 | 21 | 13 | 73 | 29.99 | NW | 0 | 0.00 |